Flight Track Log - Related Links

Times and Time Zones

All times are in EDT time to prevent confusion due to time zone crossing. See the CSN6819 flight status page for this flight to view local times or setup timezone preferences in your user account.

Time Position Orientation Groundspeed Altitude Reporting Facility
EDT Latitude Longitude Course Direction KTS MPH feet Rate Location/Type
Thu 09:36:00 AM 43.3121 86.7239 223° Southwest  Level Estimated
Thu 09:37:00 AM 43.2267 86.6179 222° Southwest  Level Estimated
Thu 09:38:00 AM 43.1412 86.5122 222° Southwest  Level Estimated
Thu 09:39:00 AM 43.0556 86.4068 222° Southwest  Level Estimated
Thu 09:40:00 AM 42.9699 86.3017 222° Southwest  Level Estimated
Thu 09:41:00 AM 42.8841 86.1969 222° Southwest  Level Estimated
Thu 09:42:00 AM 42.7982 86.0924 222° Southwest  Level Estimated
Thu 09:43:00 AM 42.7122 85.9882 222° Southwest  Level Estimated
Thu 09:44:00 AM 42.6262 85.8842 222° Southwest  Level Estimated
Thu 09:45:00 AM 42.5400 85.7806 222° Southwest  Level Estimated
Thu 09:46:00 AM 42.4537 85.6772 221° Southwest  Level Estimated
Thu 09:47:00 AM 42.3674 85.5741 221° Southwest  Level Estimated
Thu 09:48:00 AM 42.2809 85.4713 221° Southwest  Level Estimated
Thu 09:49:00 AM 42.1944 85.3688 221° Southwest  Level Estimated
Thu 09:50:00 AM 42.1078 85.2666 221° Southwest  Level Estimated
Thu 09:51:00 AM 42.0211 85.1646 221° Southwest  Level Estimated
Thu 09:52:00 AM 41.9343 85.0629 221° Southwest  Level Estimated
Thu 09:53:00 AM 41.8474 84.9615 221° Southwest  Level Estimated
Thu 09:54:00 AM 41.7604 84.8604 221° Southwest  Level Estimated
Thu 09:55:00 AM 41.6733 84.7595 221° Southwest  Level Estimated
Thu 09:56:00 AM 41.5862 84.6590 221° Southwest  Level Estimated
Thu 09:57:00 AM 41.4989 84.5586 221° Southwest  Level Estimated
Thu 09:58:00 AM 41.4116 84.4586 221° Southwest  Level Estimated
Thu 09:59:00 AM 41.3241 84.3588 221° Southwest  Level Estimated
Thu 10:00:00 AM 41.2366 84.2593 221° Southwest  Level Estimated
Thu 10:01:00 AM 41.1490 84.1601 220° Southwest  Level Estimated
Thu 10:02:00 AM 41.0614 84.0611 220° Southwest  Level Estimated
Thu 10:03:00 AM 40.9736 83.9624 220° Southwest  Level Estimated
Thu 10:04:00 AM 40.8857 83.8640 220° Southwest  Level Estimated
Thu 10:05:00 AM 40.7978 83.7658 220° Southwest  Level Estimated
Thu 10:06:00 AM 40.7098 83.6678 220° Southwest  Level Estimated
Thu 10:07:00 AM 40.6217 83.5702 220° Southwest  Level Estimated
Thu 10:08:00 AM 40.5335 83.4728 220° Southwest  Level Estimated
Thu 10:09:00 AM 40.4453 83.3756 220° Southwest  Level Estimated
Thu 10:10:00 AM 40.3569 83.2787 220° Southwest  Level Estimated
Thu 10:11:00 AM 40.2685 83.1821 220° Southwest  Level Estimated
Thu 10:12:00 AM 40.1800 83.0857 220° Southwest  Level Estimated
Thu 10:13:00 AM 40.0914 82.9895 220° Southwest  Level Estimated
Thu 10:14:00 AM 40.0028 82.8936 220° Southwest  Level Estimated
Thu 10:15:00 AM 39.9140 82.7980 220° Southwest  Level Estimated
Thu 10:16:00 AM 39.8252 82.7026 220° Southwest  Level Estimated
Thu 10:17:00 AM 39.7363 82.6075 219° Southwest  Level Estimated
Thu 10:18:00 AM 39.6473 82.5126 219° Southwest  Level Estimated
Thu 10:19:00 AM 39.5583 82.4179 219° Southwest  Level Estimated
Thu 10:20:00 AM 39.4692 82.3235 219° Southwest  Level Estimated
Thu 10:21:00 AM 39.3800 82.2293 219° Southwest  Level Estimated
Thu 10:22:00 AM 39.2907 82.1354 219° Southwest  Level Estimated
Thu 10:23:00 AM 39.2013 82.0417 219° Southwest  Level Estimated
Thu 10:24:00 AM 39.1119 81.9482 219° Southwest  Level Estimated
Thu 10:25:00 AM 39.0224 81.8550 219° Southwest  Level Estimated
Thu 10:26:00 AM 38.9328 81.7620 219° Southwest  Level Estimated
Thu 10:27:00 AM 38.8432 81.6693 219° Southwest  Level Estimated
Thu 10:28:00 AM 38.7534 81.5768 219° Southwest  Level Estimated
Thu 10:29:00 AM 38.6636 81.4845 219° Southwest  Level Estimated
Thu 10:30:00 AM 38.5738 81.3924 219° Southwest  Level Estimated
Thu 10:31:00 AM 38.4838 81.3006 219° Southwest  Level Estimated
Thu 10:32:00 AM 38.3938 81.2090 219° Southwest  Level Estimated
Thu 10:33:00 AM 38.3037 81.1176 219° Southwest  Level Estimated
Thu 10:34:00 AM 38.2136 81.0265 218° Southwest  Level Estimated
Thu 10:35:00 AM 38.1233 80.9356 218° Southwest  Level Estimated
Thu 10:36:00 AM 38.0331 80.8449 218° Southwest  Level Estimated
Thu 10:37:00 AM 37.9427 80.7544 218° Southwest  Level Estimated
Thu 10:38:00 AM 37.8523 80.6642 218° Southwest  Level Estimated
Thu 10:39:00 AM 37.7618 80.5742 218° Southwest  Level Estimated
Thu 10:40:00 AM 37.6712 80.4844 218° Southwest  Level Estimated
Thu 10:41:00 AM 37.5806 80.3948 218° Southwest  Level Estimated
Thu 10:42:00 AM 37.4898 80.3054 218° Southwest  Level Estimated
Thu 10:43:00 AM 37.3991 80.2163 218° Southwest  Level Estimated
Thu 10:44:00 AM 37.3082 80.1273 218° Southwest  Level Estimated
Thu 10:45:00 AM 37.2173 80.0386 218° Southwest  Level Estimated
Thu 10:46:00 AM 37.1264 79.9501 218° Southwest  Level Estimated
Thu 10:47:00 AM 37.0385 79.8649 218° Southwest  Level Estimated
Thu 10:48:00 AM 37.0385 79.8649 North  Level Estimated
Thu 10:49:00 AM 37.0385 79.8649 North  Level Estimated
Thu 10:50:00 AM 37.0385 79.8649 North  Level Estimated
Thu 10:51:00 AM 37.0385 79.8649 North  Level Estimated
Thu 10:52:00 AM 37.0385 79.8649 North  Level Estimated
Thu 10:53:00 AM 37.0385 79.8649 North  Level Estimated
Thu 10:54:00 AM 37.0385 79.8649 North  Level Estimated
Thu 10:55:00 AM 37.0385 79.8649 North  Level Estimated
Thu 10:56:00 AM 37.0385 79.8649 North  Level Estimated
Thu 10:57:00 AM 37.0385 79.8649 North  Level Estimated
Thu 10:58:00 AM 37.0385 79.8649 North  Level Estimated
Thu 10:59:00 AM 37.0385 79.8649 North  Level Estimated
Thu 11:00:00 AM 37.0385 79.8649 North  Level Estimated

Login

Don't have an account? Register now (free) for customized features, flight alerts, and more!